createdAt,value
2018-05-06T00:00:59.397Z,6.93
2018-05-06T00:03:27.511Z,6.37
2018-05-06T00:05:56.715Z,6.30
2018-05-06T00:08:25.041Z,6.93
2018-05-06T00:10:53.208Z,6.60
2018-05-06T00:13:22.464Z,6.60
2018-05-06T00:15:50.583Z,6.40
2018-05-06T00:18:18.678Z,6.93
2018-05-06T00:20:48.999Z,6.73
2018-05-06T00:23:17.174Z,6.67
2018-05-06T00:25:46.048Z,8.10
2018-05-06T00:28:14.909Z,9.77
2018-05-06T00:30:43.039Z,14.33
2018-05-06T00:33:11.931Z,11.80
2018-05-06T00:35:40.268Z,10.13
2018-05-06T00:38:09.773Z,8.77
2018-05-06T00:40:39.449Z,8.93
2018-05-06T00:43:07.698Z,10.40
2018-05-06T00:45:36.602Z,9.40
2018-05-06T00:48:04.690Z,9.07
2018-05-06T00:50:32.888Z,9.87
2018-05-06T00:53:00.993Z,10.10
2018-05-06T00:55:29.869Z,10.53
2018-05-06T00:57:59.367Z,9.90
2018-05-06T01:00:27.592Z,10.80
2018-05-06T01:02:55.733Z,10.43
2018-05-06T01:05:23.871Z,11.00
2018-05-06T01:07:53.342Z,11.30
2018-05-06T01:10:21.593Z,11.77
2018-05-06T01:12:49.790Z,11.57
2018-05-06T01:15:18.799Z,10.83
2018-05-06T01:17:46.907Z,11.70
2018-05-06T01:20:15.049Z,11.80
2018-05-06T01:22:43.693Z,14.13
2018-05-06T01:25:11.864Z,12.23
2018-05-06T01:27:39.984Z,12.07
2018-05-06T01:30:08.747Z,11.30
2018-05-06T01:32:38.303Z,11.73
2018-05-06T01:35:06.429Z,11.83
2018-05-06T01:37:34.547Z,11.50
2018-05-06T01:40:02.666Z,11.33
2018-05-06T01:42:32.585Z,10.43
2018-05-06T01:45:02.026Z,10.47
2018-05-06T01:47:30.262Z,10.03
2018-05-06T01:49:58.404Z,9.63
2018-05-06T01:52:26.512Z,9.83
2018-05-06T01:54:56.125Z,9.90
2018-05-06T01:57:24.229Z,10.03
2018-05-06T01:59:52.352Z,10.77
2018-05-06T02:02:21.726Z,11.13
2018-05-06T02:04:49.948Z,10.67
2018-05-06T02:07:18.066Z,11.00
2018-05-06T02:09:46.996Z,10.70
2018-05-06T02:12:15.979Z,10.50
2018-05-06T02:14:45.015Z,10.33
2018-05-06T02:17:13.132Z,10.63
2018-05-06T02:19:42.038Z,10.10
2018-05-06T02:22:10.910Z,9.80
2018-05-06T02:24:39.024Z,9.70
2018-05-06T02:27:07.207Z,9.67
2018-05-06T02:29:35.321Z,9.60
2018-05-06T02:32:04.229Z,9.10
2018-05-06T02:34:33.099Z,9.50
2018-05-06T02:37:01.212Z,9.30
2018-05-06T02:39:30.058Z,8.63
2018-05-06T02:41:58.181Z,8.70
2018-05-06T02:44:27.826Z,8.77
2018-05-06T02:46:57.164Z,9.77
2018-05-06T02:49:26.785Z,9.70
2018-05-06T02:51:55.650Z,8.43
2018-05-06T02:54:25.763Z,9.07
2018-05-06T02:56:55.231Z,9.20
2018-05-06T02:59:23.323Z,9.30
2018-05-06T03:01:51.506Z,9.20
2018-05-06T03:04:19.717Z,9.57
2018-05-06T03:06:48.662Z,10.00
2018-05-06T03:09:16.775Z,9.27
2018-05-06T03:11:45.787Z,9.03
2018-05-06T03:14:14.722Z,9.30
2018-05-06T03:16:42.843Z,9.90
2018-05-06T03:19:12.034Z,10.40
2018-05-06T03:21:40.909Z,11.07
2018-05-06T03:24:09.963Z,10.87
2018-05-06T03:26:38.070Z,11.60
2018-05-06T03:29:06.200Z,11.43
2018-05-06T03:31:34.395Z,11.40
2018-05-06T03:34:02.515Z,12.20
2018-05-06T03:36:30.707Z,11.40
2018-05-06T03:38:58.950Z,11.63
2018-05-06T03:41:27.970Z,11.40
2018-05-06T03:43:56.065Z,11.17
2018-05-06T03:46:24.190Z,11.53
2018-05-06T03:48:52.991Z,11.60
2018-05-06T03:51:21.206Z,11.67
2018-05-06T03:53:49.301Z,11.70
2018-05-06T03:59:39.630Z,11.17
2018-05-06T04:05:18.851Z,10.73
2018-05-06T04:07:47.804Z,11.03
2018-05-06T04:10:16.798Z,11.50
2018-05-06T04:12:45.661Z,11.40
2018-05-06T04:15:13.932Z,11.70
2018-05-06T04:17:42.235Z,12.40
2018-05-06T04:20:11.097Z,11.97
2018-05-06T04:22:39.299Z,12.43
2018-05-06T04:25:08.004Z,11.80
2018-05-06T04:27:36.124Z,11.67
2018-05-06T04:30:04.248Z,11.83
2018-05-06T04:32:34.711Z,11.63
2018-05-06T04:35:02.806Z,12.50
2018-05-06T04:37:30.967Z,12.60
2018-05-06T04:39:59.600Z,13.50
2018-05-06T04:42:29.102Z,14.00
2018-05-06T04:44:57.982Z,12.80
2018-05-06T04:47:26.936Z,12.10
2018-05-06T04:49:56.043Z,13.20
2018-05-06T04:52:24.168Z,13.73
2018-05-06T04:54:52.283Z,13.00
2018-05-06T04:57:20.497Z,12.40
2018-05-06T04:59:49.400Z,12.30
2018-05-06T05:02:18.319Z,12.70
2018-05-06T05:04:46.606Z,12.27
2018-05-06T05:07:14.902Z,11.50
2018-05-06T05:09:43.007Z,12.70
2018-05-06T05:12:11.879Z,11.30
2018-05-06T05:14:39.986Z,11.43
2018-05-06T05:17:08.090Z,11.23
2018-05-06T05:19:36.209Z,11.10
2018-05-06T05:22:04.763Z,10.33
2018-05-06T05:24:33.756Z,11.37
2018-05-06T05:27:01.901Z,11.83
2018-05-06T05:29:30.016Z,11.23
2018-05-06T05:31:58.125Z,10.57
2018-05-06T05:34:26.316Z,10.40
2018-05-06T05:36:54.373Z,10.67
2018-05-06T05:39:22.485Z,11.13
2018-05-06T05:41:50.609Z,10.57
2018-05-06T05:44:18.751Z,11.77
2018-05-06T05:46:46.856Z,10.43
2018-05-06T05:49:14.976Z,11.20
2018-05-06T05:51:43.118Z,10.80
2018-05-06T05:54:11.223Z,10.70
2018-05-06T05:56:39.355Z,10.83
2018-05-06T05:59:07.475Z,10.10
2018-05-06T06:01:35.662Z,10.40
2018-05-06T06:04:03.706Z,10.50
2018-05-06T06:06:31.830Z,10.50
2018-05-06T06:09:00.211Z,10.13
2018-05-06T06:11:29.834Z,10.07
2018-05-06T06:13:58.016Z,10.13
2018-05-06T06:16:26.122Z,10.57
2018-05-06T06:18:54.330Z,10.63
2018-05-06T06:21:23.239Z,10.23
2018-05-06T06:23:52.205Z,9.70
2018-05-06T06:26:21.090Z,10.63
2018-05-06T06:28:49.216Z,10.27
2018-05-06T06:31:17.338Z,8.60
2018-05-06T06:33:45.511Z,8.93
2018-05-06T06:36:14.440Z,9.27
2018-05-06T06:38:42.748Z,9.00
2018-05-06T06:41:10.843Z,8.50
2018-05-06T06:43:39.013Z,8.63
2018-05-06T06:46:07.111Z,9.00
2018-05-06T06:48:35.977Z,9.17
2018-05-06T06:51:04.087Z,8.95
2018-05-06T06:53:32.187Z,8.63
2018-05-06T06:56:00.290Z,8.93
2018-05-06T06:58:28.464Z,9.60
2018-05-06T07:00:57.368Z,8.67
2018-05-06T07:03:26.815Z,8.83
2018-05-06T07:05:54.951Z,8.87
2018-05-06T07:08:25.019Z,7.50
2018-05-06T07:10:53.897Z,8.80
2018-05-06T07:13:23.419Z,8.57
2018-05-06T07:15:51.805Z,8.47
2018-05-06T07:18:20.394Z,8.27
2018-05-06T07:20:48.545Z,8.60
2018-05-06T07:23:16.650Z,8.63
2018-05-06T07:25:46.540Z,8.87
2018-05-06T07:28:14.707Z,8.40
2018-05-06T07:30:44.568Z,8.60
2018-05-06T07:33:12.692Z,8.90
2018-05-06T07:35:40.933Z,7.93
2018-05-06T07:38:09.792Z,8.23
2018-05-06T07:40:38.034Z,7.90
2018-05-06T07:43:06.165Z,8.40
2018-05-06T07:45:34.399Z,8.70
2018-05-06T07:48:02.625Z,7.37
2018-05-06T07:50:32.684Z,8.30
2018-05-06T07:53:00.836Z,8.07
2018-05-06T07:55:29.447Z,8.17
2018-05-06T07:57:58.643Z,7.70
2018-05-06T08:00:27.569Z,7.67
2018-05-06T08:02:55.757Z,7.97
2018-05-06T08:05:25.492Z,7.80
2018-05-06T08:07:54.269Z,8.17
2018-05-06T08:10:22.377Z,7.30
2018-05-06T08:12:50.499Z,8.23
2018-05-06T08:15:19.391Z,8.30
2018-05-06T08:17:47.521Z,7.33
2018-05-06T08:20:15.697Z,7.80
2018-05-06T08:22:44.633Z,7.83
2018-05-06T08:25:13.957Z,8.17
2018-05-06T08:27:42.064Z,8.00
2018-05-06T08:30:10.176Z,8.60
2018-05-06T08:32:38.404Z,7.47
2018-05-06T08:35:06.747Z,8.53
2018-05-06T08:37:34.854Z,8.13
2018-05-06T08:40:02.987Z,7.57
2018-05-06T08:42:31.119Z,7.20
2018-05-06T08:45:01.351Z,7.17
2018-05-06T08:47:29.479Z,7.20
2018-05-06T08:49:57.586Z,7.30
2018-05-06T08:52:27.199Z,7.90
2018-05-06T08:54:56.841Z,6.87
2018-05-06T08:57:27.470Z,7.63
2018-05-06T08:59:56.405Z,7.50
2018-05-06T09:02:25.766Z,7.37
2018-05-06T09:04:54.696Z,7.40
2018-05-06T09:07:22.807Z,6.80
2018-05-06T09:09:51.070Z,7.23
2018-05-06T09:12:19.179Z,7.37
2018-05-06T09:14:47.330Z,7.50
2018-05-06T09:17:15.440Z,6.83
2018-05-06T09:19:43.684Z,6.50
2018-05-06T09:22:12.535Z,6.03
2018-05-06T09:24:40.627Z,6.20
2018-05-06T09:27:08.741Z,5.80
2018-05-06T09:29:36.861Z,6.50
2018-05-06T09:32:04.953Z,5.90
2018-05-06T09:34:33.086Z,6.07
2018-05-06T09:37:01.193Z,5.80
2018-05-06T09:39:29.475Z,6.80
2018-05-06T09:41:57.596Z,5.77
2018-05-06T09:44:26.078Z,6.17
2018-05-06T09:46:55.719Z,6.10
2018-05-06T09:49:23.890Z,5.90
2018-05-06T09:51:52.019Z,5.90
2018-05-06T09:54:20.126Z,6.47
2018-05-06T09:56:48.248Z,5.53
2018-05-06T09:59:17.113Z,5.80
2018-05-06T10:01:45.254Z,6.07
2018-05-06T10:04:13.366Z,5.73
2018-05-06T10:06:42.295Z,7.13
2018-05-06T10:09:10.433Z,5.30
2018-05-06T10:11:38.888Z,6.47
2018-05-06T10:14:07.204Z,6.27
2018-05-06T10:16:35.593Z,5.63
2018-05-06T10:19:03.748Z,5.73
2018-05-06T10:21:32.623Z,6.23
2018-05-06T10:24:00.749Z,6.00
2018-05-06T10:26:28.840Z,5.90
2018-05-06T10:28:57.136Z,5.03
2018-05-06T10:31:25.257Z,5.70
2018-05-06T10:33:56.050Z,5.63
2018-05-06T10:36:24.170Z,5.60
2018-05-06T10:38:53.199Z,5.07
2018-05-06T10:41:22.028Z,4.90
2018-05-06T10:43:50.614Z,5.07
2018-05-06T10:46:19.687Z,5.03
2018-05-06T10:48:48.314Z,4.73
2018-05-06T10:51:16.450Z,4.60
2018-05-06T10:53:44.729Z,4.37
2018-05-06T10:56:12.877Z,3.93
2018-05-06T10:58:40.979Z,4.70
2018-05-06T11:01:09.089Z,4.33
2018-05-06T11:03:37.198Z,4.10
2018-05-06T11:06:05.298Z,4.53
2018-05-06T11:08:34.314Z,4.87
2018-05-06T11:11:02.516Z,4.70
2018-05-06T11:13:30.665Z,4.30
2018-05-06T11:16:00.746Z,4.63
2018-05-06T11:18:28.850Z,4.73
2018-05-06T11:20:56.975Z,4.97
2018-05-06T11:23:26.343Z,4.57
2018-05-06T11:25:55.920Z,4.70
2018-05-06T11:28:26.422Z,4.83
2018-05-06T11:30:54.557Z,5.23
2018-05-06T11:33:22.661Z,4.70
2018-05-06T11:35:50.870Z,5.20
2018-05-06T11:38:19.762Z,4.47
2018-05-06T11:40:48.635Z,5.17
2018-05-06T11:43:16.821Z,5.30
2018-05-06T11:45:46.993Z,5.20
2018-05-06T11:48:15.095Z,5.27
2018-05-06T11:50:43.202Z,5.17
2018-05-06T11:53:11.313Z,5.23
2018-05-06T11:55:39.437Z,5.10
2018-05-06T11:58:08.318Z,5.10
2018-05-06T12:00:37.205Z,4.90
2018-05-06T12:03:06.574Z,5.60
2018-05-06T12:05:34.692Z,5.30
2018-05-06T12:08:03.721Z,4.80
2018-05-06T12:10:31.856Z,5.07
2018-05-06T12:13:00.724Z,4.77
2018-05-06T12:15:30.229Z,4.90
2018-05-06T12:17:58.327Z,4.90
2018-05-06T12:20:27.214Z,4.80
2018-05-06T12:22:56.107Z,4.97
2018-05-06T12:25:25.118Z,4.87
2018-05-06T12:27:53.224Z,4.80
2018-05-06T12:30:22.263Z,4.70
2018-05-06T12:32:51.129Z,4.37
2018-05-06T12:35:20.105Z,4.60
2018-05-06T12:37:48.225Z,4.70
2018-05-06T12:40:17.109Z,4.50
2018-05-06T12:42:48.940Z,4.77
2018-05-06T12:45:17.065Z,4.67
2018-05-06T12:47:46.195Z,4.70
2018-05-06T12:50:14.314Z,5.50
2018-05-06T12:52:43.771Z,5.13
2018-05-06T12:55:11.869Z,4.67
2018-05-06T12:57:40.037Z,5.23
2018-05-06T13:00:09.022Z,4.70
2018-05-06T13:02:37.172Z,4.97
2018-05-06T13:05:06.215Z,4.30
2018-05-06T13:07:35.796Z,4.70
2018-05-06T13:10:04.676Z,4.50
2018-05-06T13:12:33.049Z,4.43
2018-05-06T13:15:01.276Z,4.20
2018-05-06T13:17:30.151Z,4.43
2018-05-06T13:19:58.271Z,4.50
2018-05-06T13:22:26.486Z,4.40
2018-05-06T13:24:54.593Z,4.30
2018-05-06T13:27:23.961Z,4.10
2018-05-06T13:29:52.143Z,4.20
2018-05-06T13:32:20.251Z,4.07
2018-05-06T13:34:50.437Z,3.90
2018-05-06T13:37:18.572Z,4.00
2018-05-06T13:39:46.750Z,4.00
2018-05-06T13:42:14.876Z,4.30
2018-05-06T13:44:43.871Z,4.10
2018-05-06T13:47:11.957Z,3.93
2018-05-06T13:49:40.079Z,4.30
2018-05-06T13:52:08.186Z,4.07
2018-05-06T13:54:37.199Z,3.93
2018-05-06T13:57:05.325Z,3.90
2018-05-06T13:59:33.490Z,4.37
2018-05-06T14:02:01.750Z,3.97
2018-05-06T14:04:31.115Z,4.00
2018-05-06T14:07:00.288Z,4.57
2018-05-06T14:09:28.391Z,4.20
2018-05-06T14:11:56.503Z,5.20
2018-05-06T14:14:24.616Z,4.00
2018-05-06T14:16:53.518Z,4.00
2018-05-06T14:19:22.520Z,4.00
2018-05-06T14:21:50.796Z,5.90
2018-05-06T14:24:18.915Z,4.03
2018-05-06T14:26:47.949Z,4.00
2018-05-06T14:29:16.936Z,3.93
2018-05-06T14:31:45.800Z,3.70
2018-05-06T14:34:13.910Z,4.03
2018-05-06T14:36:42.200Z,4.30
2018-05-06T14:39:10.367Z,3.77
2018-05-06T14:41:38.593Z,3.33
2018-05-06T14:44:06.723Z,3.23
2018-05-06T14:46:47.796Z,3.83
2018-05-06T14:49:15.924Z,3.87
2018-05-06T14:51:44.051Z,3.80
2018-05-06T14:54:12.283Z,3.58
2018-05-06T14:56:40.524Z,3.50
2018-05-06T14:59:08.863Z,3.42
2018-05-06T15:01:36.977Z,4.18
2018-05-06T15:04:05.590Z,3.72
2018-05-06T15:06:34.485Z,3.67
2018-05-06T15:09:04.314Z,3.35
2018-05-06T15:11:33.332Z,3.37
2018-05-06T15:14:01.442Z,3.17
2018-05-06T15:16:29.649Z,3.12
2018-05-06T15:18:59.056Z,3.22
2018-05-06T15:21:28.151Z,2.95
2018-05-06T15:23:57.005Z,3.45
2018-05-06T15:26:25.739Z,2.80
2018-05-06T15:28:54.129Z,3.00
2018-05-06T15:31:22.259Z,3.47
2018-05-06T15:33:51.319Z,2.90
2018-05-06T15:36:20.268Z,2.90
2018-05-06T15:38:49.259Z,2.58
2018-05-06T15:41:17.449Z,2.75
2018-05-06T15:43:45.500Z,2.50
2018-05-06T15:46:14.850Z,2.80
2018-05-06T15:48:42.978Z,2.90
2018-05-06T15:51:11.910Z,2.70
2018-05-06T15:53:40.024Z,2.60
2018-05-06T15:56:08.126Z,2.97
2018-05-06T15:58:36.235Z,3.42
2018-05-06T16:01:04.380Z,3.12
2018-05-06T16:03:44.529Z,3.65
2018-05-06T16:06:12.765Z,2.80
2018-05-06T16:08:40.880Z,2.25
2018-05-06T16:11:08.991Z,2.30
2018-05-06T16:13:38.548Z,2.30
2018-05-06T16:16:07.417Z,2.10
2018-05-06T16:18:35.536Z,2.20
2018-05-06T16:21:03.653Z,2.42
2018-05-06T16:23:32.593Z,1.90
2018-05-06T16:26:00.778Z,2.00
2018-05-06T16:28:28.874Z,1.80
2018-05-06T16:30:56.989Z,1.70
2018-05-06T16:33:26.032Z,1.90
2018-05-06T16:35:54.249Z,2.10
2018-05-06T16:38:23.471Z,1.92
2018-05-06T16:40:51.705Z,2.17
2018-05-06T16:43:21.134Z,1.98
2018-05-06T16:45:49.237Z,1.90
2018-05-06T16:48:17.718Z,1.85
2018-05-06T16:50:45.807Z,1.80
2018-05-06T16:53:14.022Z,1.85
2018-05-06T16:55:43.020Z,1.80
2018-05-06T16:58:12.726Z,2.08
2018-05-06T17:00:41.394Z,2.10
2018-05-06T17:03:09.908Z,1.73
2018-05-06T17:05:39.250Z,1.50
2018-05-06T17:08:08.314Z,1.58
2018-05-06T17:10:36.563Z,1.70
2018-05-06T17:13:05.432Z,1.48
2018-05-06T17:15:33.592Z,1.70
2018-05-06T17:18:01.731Z,1.48
2018-05-06T17:20:29.952Z,1.73
2018-05-06T17:22:58.073Z,1.42
2018-05-06T17:25:26.828Z,1.70
2018-05-06T17:27:55.028Z,1.60
2018-05-06T17:30:23.984Z,1.60
2018-05-06T17:32:53.623Z,1.60
2018-05-06T17:35:23.573Z,1.60
2018-05-06T17:37:51.630Z,1.55
2018-05-06T17:40:19.955Z,1.50
2018-05-06T17:42:48.620Z,1.60
2018-05-06T17:45:16.899Z,1.55
2018-05-06T17:47:45.002Z,1.62
2018-05-06T17:50:13.187Z,1.40
2018-05-06T17:52:41.277Z,2.00
2018-05-06T17:55:10.849Z,1.90
2018-05-06T17:57:38.960Z,1.87
2018-05-06T18:00:07.332Z,1.60
2018-05-06T18:02:36.204Z,2.00
2018-05-06T18:05:06.323Z,1.50
2018-05-06T18:07:35.373Z,1.93
2018-05-06T18:10:04.191Z,1.70
2018-05-06T18:12:33.114Z,1.80
2018-05-06T18:15:01.977Z,1.60
2018-05-06T18:17:30.877Z,1.80
2018-05-06T18:19:59.013Z,1.70
2018-05-06T18:22:27.184Z,1.80
2018-05-06T18:24:55.519Z,1.80
2018-05-06T18:27:24.422Z,2.10
2018-05-06T18:29:52.518Z,1.90
2018-05-06T18:32:21.036Z,1.80
2018-05-06T18:34:49.244Z,1.90
2018-05-06T18:37:18.110Z,1.90
2018-05-06T18:39:46.280Z,1.83
2018-05-06T18:42:16.322Z,1.87
2018-05-06T18:44:45.108Z,2.00
2018-05-06T18:47:13.987Z,1.80
2018-05-06T18:49:42.849Z,1.93
2018-05-06T18:52:10.967Z,2.00
2018-05-06T18:54:39.840Z,2.80
2018-05-06T18:57:11.588Z,2.77
2018-05-06T18:59:39.773Z,2.40
2018-05-06T19:02:08.635Z,2.63
2018-05-06T19:04:36.803Z,2.30
2018-05-06T19:07:04.922Z,3.30
2018-05-06T19:09:33.788Z,3.10
2018-05-06T19:12:02.073Z,3.17
2018-05-06T19:14:30.176Z,3.20
2018-05-06T19:16:58.338Z,2.63
2018-05-06T19:19:26.573Z,2.60
2018-05-06T19:21:54.693Z,2.70
2018-05-06T19:24:22.833Z,2.60
2018-05-06T19:26:54.742Z,2.50
2018-05-06T19:29:22.857Z,2.30
2018-05-06T19:31:50.953Z,2.40
2018-05-06T19:34:19.952Z,2.60
2018-05-06T19:36:48.831Z,2.60
2018-05-06T19:39:16.936Z,2.80
2018-05-06T19:41:45.040Z,2.67
2018-05-06T19:44:15.411Z,2.80
2018-05-06T19:46:46.195Z,3.17
2018-05-06T19:49:14.308Z,2.73
2018-05-06T19:51:44.159Z,2.67
2018-05-06T19:54:14.508Z,2.73
2018-05-06T19:56:42.615Z,2.87
2018-05-06T19:59:10.764Z,3.20
2018-05-06T20:01:38.932Z,3.27
2018-05-06T20:04:07.051Z,3.43
2018-05-06T20:06:37.312Z,3.40
2018-05-06T20:09:05.425Z,3.47
2018-05-06T20:11:34.002Z,3.67
2018-05-06T20:14:02.137Z,4.03
2018-05-06T20:16:32.321Z,3.83
2018-05-06T20:19:02.569Z,4.23
2018-05-06T20:21:30.719Z,3.80
2018-05-06T20:23:58.771Z,3.47
2018-05-06T20:26:26.863Z,3.90
2018-05-06T20:28:55.826Z,3.60
2018-05-06T20:31:23.953Z,3.60
2018-05-06T20:33:52.047Z,3.93
2018-05-06T20:36:21.306Z,6.90
2018-05-06T20:38:50.301Z,11.75
2018-05-06T20:41:18.512Z,14.77
2018-05-06T20:43:46.687Z,16.37
2018-05-06T20:46:15.890Z,12.67
2018-05-06T20:48:44.030Z,13.10
2018-05-06T20:51:12.208Z,12.90
2018-05-06T20:53:40.341Z,18.13
2018-05-06T20:56:09.235Z,13.23
2018-05-06T20:58:39.449Z,9.53
2018-05-06T21:01:07.576Z,10.10
2018-05-06T21:03:35.690Z,10.87
2018-05-06T21:06:04.112Z,11.13
2018-05-06T21:08:32.226Z,12.07
2018-05-06T21:11:00.413Z,11.30
2018-05-06T21:13:28.533Z,8.53
2018-05-06T21:15:56.736Z,8.10
2018-05-06T21:18:24.835Z,8.50
2018-05-06T21:20:53.726Z,7.53
2018-05-06T21:23:21.837Z,7.77
2018-05-06T21:25:50.411Z,5.90
2018-05-06T21:28:19.318Z,6.17
2018-05-06T21:30:48.505Z,6.23
2018-05-06T21:33:17.572Z,6.30
2018-05-06T21:35:45.840Z,6.30
2018-05-06T21:38:14.411Z,7.17
2018-05-06T21:40:42.527Z,7.63
2018-05-06T21:43:11.444Z,8.23
2018-05-06T21:45:39.770Z,6.97
2018-05-06T21:48:08.487Z,6.00
2018-05-06T21:50:36.619Z,5.53
2018-05-06T21:53:04.760Z,4.83
2018-05-06T21:55:32.857Z,4.30
2018-05-06T21:58:02.310Z,4.63
2018-05-06T22:00:31.178Z,3.80
2018-05-06T22:03:00.061Z,3.70
2018-05-06T22:05:28.971Z,4.13
2018-05-06T22:07:57.076Z,3.77
2018-05-06T22:10:26.015Z,3.90
2018-05-06T22:12:54.093Z,3.87
2018-05-06T22:15:22.975Z,3.67
2018-05-06T22:17:51.839Z,3.50
2018-05-06T22:20:19.990Z,3.60
2018-05-06T22:22:48.088Z,3.57
2018-05-06T22:25:16.196Z,4.03
2018-05-06T22:27:45.848Z,3.50
2018-05-06T22:30:14.071Z,3.80
2018-05-06T22:32:42.175Z,3.77
2018-05-06T22:35:10.362Z,3.67
2018-05-06T22:37:38.489Z,3.20
2018-05-06T22:40:06.747Z,3.43
2018-05-06T22:42:35.531Z,3.50
2018-05-06T22:45:03.648Z,3.30
2018-05-06T22:47:32.670Z,3.50
2018-05-06T22:50:00.962Z,3.60
2018-05-06T22:52:29.121Z,3.70
2018-05-06T22:54:57.231Z,3.07
2018-05-06T22:57:26.847Z,3.53
2018-05-06T22:59:56.658Z,3.77
2018-05-06T23:02:24.791Z,3.60
2018-05-06T23:04:54.075Z,3.77
2018-05-06T23:07:22.820Z,3.87
2018-05-06T23:09:50.920Z,3.90
2018-05-06T23:12:19.793Z,4.00
2018-05-06T23:14:48.609Z,3.60
2018-05-06T23:17:16.713Z,3.40
2018-05-06T23:19:44.928Z,4.03
2018-05-06T23:22:14.586Z,3.50
2018-05-06T23:24:42.565Z,3.90
2018-05-06T23:27:10.670Z,3.73
2018-05-06T23:29:40.212Z,3.70
2018-05-06T23:32:09.280Z,3.37
2018-05-06T23:34:37.501Z,3.53
2018-05-06T23:37:05.619Z,3.73
2018-05-06T23:39:35.370Z,3.63
2018-05-06T23:42:03.482Z,3.40
2018-05-06T23:44:31.663Z,3.30
2018-05-06T23:47:00.484Z,3.47
2018-05-06T23:49:29.348Z,3.40
2018-05-06T23:51:57.476Z,3.23
2018-05-06T23:54:25.626Z,3.77
2018-05-06T23:56:53.921Z,3.53
2018-05-06T23:59:22.607Z,3.77
